Observation data for Friona on 11/19/2019      Previous  Date  Next       Current Mesonet Observations  Soil Data  Daily Summary Page  Observations in Plain Language
KFAS 190600Z 14005KT 06/M03 A3001 RMK A01 T00621029  RH  052%=      5-min Rain = 0
KFAS 190605Z 16003KT 06/M03 A3002 RMK A01 T00631029  RH  052%=      5-min Rain = 0
KFAS 190610Z 16002KT 05/M02 A3002 RMK A01 T00501023  RH  060%=      5-min Rain = 0
KFAS 190615Z 18001KT 04/M02 A3002 RMK A01 T00431022  RH  063%=      5-min Rain = 0
KFAS 190620Z 21001KT 05/M02 A3002 RMK A01 T00511024  RH  059%=      5-min Rain = 0
KFAS 190625Z 24002KT 06/M03 A3002 RMK A01 T00551027  RH  056%=      5-min Rain = 0
KFAS 190630Z 24002KT 05/M03 A3002 RMK A01 T00501030  RH  056%=      5-min Rain = 0
KFAS 190635Z 24002KT 05/M03 A3002 RMK A01 T00481031  RH  057%=      5-min Rain = 0
KFAS 190640Z 27002KT 04/M03 A3002 RMK A01 T00431033  RH  058%=      5-min Rain = 0
KFAS 190645Z 28002KT 03/M03 A3002 RMK A01 T00331027  RH  065%=      5-min Rain = 0
KFAS 190650Z 29002KT 03/M03 A3002 RMK A01 T00341030  RH  063%=      5-min Rain = 0
KFAS 190655Z 26002KT 03/M03 A3002 RMK A01 T00341028  RH  064%=      5-min Rain = 0
KFAS 190700Z 27002KT 03/M03 A3002 RMK A01 T00331028  RH  065%=      5-min Rain = 0
KFAS 190705Z 29003KT 03/M03 A3002 RMK A01 T00321026  RH  066%=      5-min Rain = 0
KFAS 190710Z 30003KT 03/M03 A3001 RMK A01 T00311027  RH  066%=      5-min Rain = 0
KFAS 190715Z 30002KT 03/M03 A3001 RMK A01 T00281028  RH  067%=      5-min Rain = 0
KFAS 190720Z 30001KT 03/M03 A3001 RMK A01 T00311027  RH  066%=      5-min Rain = 0
KFAS 190725Z 30001KT 04/M03 A3001 RMK A01 T00351026  RH  065%=      5-min Rain = 0
KFAS 190730Z 28001KT 04/M03 A3001 RMK A01 T00381027  RH  063%=      5-min Rain = 0
KFAS 190735Z 28001KT 04/M03 A3001 RMK A01 T00361027  RH  064%=      5-min Rain = 0
KFAS 190740Z 29003KT 03/M03 A3001 RMK A01 T00331027  RH  065%=      5-min Rain = 0
KFAS 190745Z 26003KT 03/M03 A3001 RMK A01 T00281029  RH  067%=      5-min Rain = 0
KFAS 190750Z 24003KT 02/M03 A3001 RMK A01 T00201028  RH  071%=      5-min Rain = 0
KFAS 190755Z 27003KT 02/M03 A3001 RMK A01 T00161027  RH  074%=      5-min Rain = 0
KFAS 190800Z 26003KT 02/M03 A3001 RMK A01 T00151026  RH  075%=      5-min Rain = 0
KFAS 190805Z 24002KT 02/M03 A3001 RMK A01 T00191025  RH  073%=      5-min Rain = 0
KFAS 190810Z 24002KT 01/M03 A3001 RMK A01 T00141028  RH  074%=      5-min Rain = 0
KFAS 190815Z 21001KT 02/M02 A3001 RMK A01 T00171023  RH  076%=      5-min Rain = 0
KFAS 190820Z 22002KT 02/M02 A3001 RMK A01 T00191024  RH  073%=      5-min Rain = 0
KFAS 190825Z 24002KT 02/M03 A3001 RMK A01 T00171026  RH  074%=      5-min Rain = 0
KFAS 190830Z 24002KT 02/M02 A3001 RMK A01 T00231023  RH  072%=      5-min Rain = 0
KFAS 190835Z 25002KT 03/M02 A3001 RMK A01 T00261024  RH  070%=      5-min Rain = 0
KFAS 190840Z 26002KT 03/M03 A3001 RMK A01 T00251027  RH  069%=      5-min Rain = 0
KFAS 190845Z 27001KT 02/M03 A3001 RMK A01 T00211027  RH  071%=      5-min Rain = 0
KFAS 190850Z 26002KT 02/M03 A3001 RMK A01 T00231025  RH  071%=      5-min Rain = 0
KFAS 190855Z 26004KT 02/M03 A3001 RMK A01 T00231026  RH  070%=      5-min Rain = 0
KFAS 190900Z 26005KT 02/M03 A3001 RMK A01 T00221026  RH  071%=      5-min Rain = 0
KFAS 190905Z 25007KT 02/M03 A3001 RMK A01 T00151027  RH  074%=      5-min Rain = 0
KFAS 190910Z 26008KT 01/M03 A3002 RMK A01 T00081026  RH  079%=      5-min Rain = 0
KFAS 190915Z 25006KT 01/M02 A3001 RMK A01 T00101023  RH  079%=      5-min Rain = 0
KFAS 190920Z 25005KT 01/M02 A3001 RMK A01 T00131022  RH  078%=      5-min Rain = 0
KFAS 190925Z 24004KT 02/M02 A3001 RMK A01 T00181023  RH  075%=      5-min Rain = 0
KFAS 190930Z 23004KT 02/M03 A3001 RMK A01 T00161027  RH  074%=      5-min Rain = 0
KFAS 190935Z 22004KT 01/M03 A3001 RMK A01 T00111029  RH  075%=      5-min Rain = 0
KFAS 190940Z 21003KT 01/M03 A30 RMK A01 T00071029  RH  078%=      5-min Rain = 0
KFAS 190945Z 21004KT 01/M03 A30 RMK A01 T00081027  RH  078%=      5-min Rain = 0
KFAS 190950Z 21002KT 01/M03 A30 RMK A01 T00081028  RH  077%=      5-min Rain = 0
KFAS 190955Z 21002KT 01/M03 A30 RMK A01 T00091025  RH  078%=      5-min Rain = 0
KFAS 191000Z 20000KT 01/M02 A30 RMK A01 T00111023  RH  078%=      5-min Rain = 0
KFAS 191005Z 18000KT 01/M02 A2999 RMK A01 T00141023  RH  077%=      5-min Rain = 0
KFAS 191010Z 19000KT 01/M03 A2999 RMK A01 T00141025  RH  076%=      5-min Rain = 0
KFAS 191015Z 24001KT 01/M03 A2999 RMK A01 T00141025  RH  076%=      5-min Rain = 0
KFAS 191020Z 26001KT 01/M03 A2999 RMK A01 T00121029  RH  075%=      5-min Rain = 0
KFAS 191025Z 28002KT 01/M03 A2999 RMK A01 T00081025  RH  079%=      5-min Rain = 0
KFAS 191030Z 30002KT 00/M03 A2999 RMK A01 T00041026  RH  080%=      5-min Rain = 0
KFAS 191035Z 31002KT 00/04 A2999 RMK A01 T00-00-35  RH  078%=      5-min Rain = 0
KFAS 191040Z 29003KT 00/03 A2999 RMK A01 T00000-30  RH  080%=      5-min Rain = 0
KFAS 191045Z 27004KT 01/M03 A2999 RMK A01 T00051030  RH  078%=      5-min Rain = 0
KFAS 191050Z 25005KT 01/M03 A2999 RMK A01 T00061032  RH  076%=      5-min Rain = 0
KFAS 191055Z 23005KT 00/M03 A2999 RMK A01 T00031032  RH  078%=      5-min Rain = 0
KFAS 191100Z 21005KT M00/M04 A2998 RMK A01 T10011035  RH  079%=      5-min Rain = 0
KFAS 191105Z 20005KT M00/M03 A2998 RMK A01 T10041033  RH  081%=      5-min Rain = 0
KFAS 191110Z 21007KT 00/M03 A2998 RMK A01 T00041025  RH  081%=      5-min Rain = 0
KFAS 191115Z 21007KT 02/M02 A2998 RMK A01 T00191019  RH  076%=      5-min Rain = 0
KFAS 191120Z 21006KT 03/M02 A2998 RMK A01 T00281016  RH  073%=      5-min Rain = 0
KFAS 191125Z 21007KT 03/M02 A2998 RMK A01 T00271020  RH  072%=      5-min Rain = 0
KFAS 191130Z 21008KT 02/M02 A2998 RMK A01 T00211018  RH  076%=      5-min Rain = 0
KFAS 191135Z 21008KT 02/M02 A2998 RMK A01 T00191017  RH  077%=      5-min Rain = 0
KFAS 191140Z 21009KT 02/M02 A2997 RMK A01 T00211016  RH  077%=      5-min Rain = 0
KFAS 191145Z 21009KT 02/M02 A2997 RMK A01 T00231015  RH  077%=      5-min Rain = 0
KFAS 191150Z 21010KT 03/M01 A2997 RMK A01 T00261012  RH  077%=      5-min Rain = 0
KFAS 191155Z 20010KT 03/M01 A2997 RMK A01 T00341010  RH  074%=      5-min Rain = 0
KFAS 191200Z 21011KT 04/M01 A2997 RMK A01 T00411009  RH  071%=      5-min Rain = 0
KFAS 191205Z 21010KT 04/M01 A2997 RMK A01 T00421009  RH  070%=      5-min Rain = 0
KFAS 191210Z 21009KT 04/M01 A2996 RMK A01 T00431009  RH  070%=      5-min Rain = 0
KFAS 191215Z 21009KT 04/M01 A2996 RMK A01 T00401011  RH  070%=      5-min Rain = 0
KFAS 191220Z 21009KT 04/M01 A2996 RMK A01 T00361013  RH  071%=      5-min Rain = 0
KFAS 191225Z 21009KT 04/M01 A2996 RMK A01 T00351013  RH  071%=      5-min Rain = 0
KFAS 191230Z 21008KT 03/M02 A2996 RMK A01 T00321015  RH  072%=      5-min Rain = 0
KFAS 191235Z 21008KT 03/M02 A2996 RMK A01 T00321015  RH  072%=      5-min Rain = 0
KFAS 191240Z 22008KT 04/M01 A2996 RMK A01 T00371013  RH  070%=      5-min Rain = 0
KFAS 191245Z 22007KT 04/M01 A2996 RMK A01 T00391013  RH  069%=      5-min Rain = 0
KFAS 191250Z 23005KT 03/M02 A2996 RMK A01 T00341016  RH  070%=      5-min Rain = 0
KFAS 191255Z 25003KT 03/M02 A2996 RMK A01 T00261017  RH  074%=      5-min Rain = 0
KFAS 191300Z 22004KT 03/M01 A2996 RMK A01 T00281014  RH  074%=      5-min Rain = 0
KFAS 191305Z 24003KT 03/M02 A2996 RMK A01 T00331015  RH  072%=      5-min Rain = 0
KFAS 191310Z 29003KT 02/M02 A2997 RMK A01 T00231019  RH  074%=      5-min Rain = 0
KFAS 191315Z 26004KT 02/M02 A2997 RMK A01 T00151020  RH  078%=      5-min Rain = 0
KFAS 191320Z 25003KT 02/M02 A2997 RMK A01 T00171020  RH  077%=      5-min Rain = 0
KFAS 191325Z 32002KT 01/M02 A2997 RMK A01 T00111022  RH  079%=      5-min Rain = 0
KFAS 191330Z 30003KT 01/M02 A2997 RMK A01 T00071023  RH  081%=      5-min Rain = 0
KFAS 191335Z 26003KT 01/M02 A2997 RMK A01 T00081020  RH  082%=      5-min Rain = 0
KFAS 191340Z 27004KT 01/M02 A2997 RMK A01 T00131019  RH  080%=      5-min Rain = 0
KFAS 191345Z 29004KT 01/M02 A2998 RMK A01 T00111021  RH  080%=      5-min Rain = 0
KFAS 191350Z 28004KT 01/M02 A2998 RMK A01 T00121021  RH  080%=      5-min Rain = 0
KFAS 191355Z 26004KT 02/M02 A2997 RMK A01 T00181018  RH  078%=      5-min Rain = 0
KFAS 191400Z 24003KT 03/M01 A2997 RMK A01 T00271014  RH  075%=      5-min Rain = 0
KFAS 191405Z 20002KT 03/M01 A2997 RMK A01 T00341012  RH  073%=      5-min Rain = 0
KFAS 191410Z 14003KT 04/M01 A2997 RMK A01 T00401014  RH  069%=      5-min Rain = 0
KFAS 191415Z 14003KT 04/M02 A2997 RMK A01 T00371018  RH  068%=      5-min Rain = 0
KFAS 191420Z 17003KT 04/M01 A2997 RMK A01 T00441010  RH  069%=      5-min Rain = 0
KFAS 191425Z 21004KT 05/M01 A2997 RMK A01 T00501007  RH  067%=      5-min Rain = 0
KFAS 191430Z 22004KT 05/M00 A2997 RMK A01 T00541001  RH  068%=      5-min Rain = 0
KFAS 191435Z 22006KT 06/00 A2997 RMK A01 T00550004  RH  071%=      5-min Rain = 0
KFAS 191440Z 22008KT 07/01 A2997 RMK A01 T00670009  RH  067%=      5-min Rain = 0
KFAS 191445Z 22008KT 08/01 A2997 RMK A01 T00790010  RH  063%=      5-min Rain = 0
KFAS 191450Z 21010KT 09/01 A2997 RMK A01 T00930009  RH  057%=      5-min Rain = 0
KFAS 191455Z 21010KT 10/01 A2997 RMK A01 T01000006  RH  053%=      5-min Rain = 0
KFAS 191500Z 20009KT 10/01 A2997 RMK A01 T01020006  RH  052%=      5-min Rain = 0
KFAS 191505Z 20009KT 10/01 A2997 RMK A01 T01010007  RH  053%=      5-min Rain = 0
KFAS 191510Z 21009KT 10/01 A2997 RMK A01 T01030009  RH  053%=      5-min Rain = 0
KFAS 191515Z 22008KT 11/01 A2997 RMK A01 T01070008  RH  051%=      5-min Rain = 0
KFAS 191520Z 22007KT 11/01 A2997 RMK A01 T01130008  RH  049%=      5-min Rain = 0
KFAS 191525Z 21008KT 12/01 A2997 RMK A01 T01190009  RH  047%=      5-min Rain = 0
KFAS 191530Z 21009KT 12/01 A2997 RMK A01 T01240008  RH  046%=      5-min Rain = 0
KFAS 191535Z 21008KT 13/01 A2997 RMK A01 T01280009  RH  045%=      5-min Rain = 0
KFAS 191540Z 21008KT 13/01 A2997 RMK A01 T01300009  RH  044%=      5-min Rain = 0
KFAS 191545Z 20010KT 13/01 A2997 RMK A01 T01330008  RH  043%=      5-min Rain = 0
KFAS 191550Z 19009KT 14/01 A2996 RMK A01 T01380011  RH  042%=      5-min Rain = 0
KFAS 191555Z 19011KT 14/01 A2996 RMK A01 T01380009  RH  042%=      5-min Rain = 0
KFAS 191600Z 19010KT 14/01 A2996 RMK A01 T01380010  RH  042%=      5-min Rain = 0
KFAS 191605Z 19009KT 14/01 A2996 RMK A01 T01410014  RH  043%=      5-min Rain = 0
KFAS 191610Z 19011KT 15/02 A2996 RMK A01 T01500015  RH  041%=      5-min Rain = 0
KFAS 191615Z 20013KT 16/02 A2996 RMK A01 T01590015  RH  038%=      5-min Rain = 0
KFAS 191620Z 20014G19KT 16/01 A2996 RMK A01 T01630010  RH  036%=      5-min Rain = 0
KFAS 191625Z 20013KT 17/01 A2996 RMK A01 T01650011  RH  036%=      5-min Rain = 0
KFAS 191630Z 19015KT 17/01 A2996 RMK A01 T01740007  RH  033%=      5-min Rain = 0
KFAS 191635Z 20015KT 18/01 A2996 RMK A01 T01750005  RH  032%=      5-min Rain = 0
KFAS 191640Z 20014KT 17/01 A2996 RMK A01 T01730005  RH  032%=      5-min Rain = 0
KFAS 191645Z 20013G18KT 17/01 A2996 RMK A01 T01730006  RH  033%=      5-min Rain = 0
KFAS 191650Z 20011KT 18/01 A2996 RMK A01 T01760009  RH  033%=      5-min Rain = 0
KFAS 191655Z 19013KT 18/01 A2996 RMK A01 T01800006  RH  031%=      5-min Rain = 0
KFAS 191700Z 20012KT 19/01 A2996 RMK A01 T01910009  RH  030%=      5-min Rain = 0
KFAS 191705Z 20014G19KT 20/00 A2995 RMK A01 T01950001  RH  028%=      5-min Rain = 0
KFAS 191710Z 19013KT 20/00 A2995 RMK A01 T01950003  RH  028%=      5-min Rain = 0
KFAS 191715Z 20014KT 20/00 A2995 RMK A01 T01980000  RH  027%=      5-min Rain = 0
KFAS 191720Z 21015G20KT 20/00 A2994 RMK A01 T01960002  RH  027%=      5-min Rain = 0
KFAS 191725Z 21016KT 19/00 A2994 RMK A01 T01940003  RH  028%=      5-min Rain = 0
KFAS 191730Z 20016KT 19/00 A2994 RMK A01 T01930004  RH  028%=      5-min Rain = 0
KFAS 191735Z 20017G23KT 20/01 A2994 RMK A01 T01970006  RH  028%=      5-min Rain = 0
KFAS 191740Z 19017G22KT 20/01 A2993 RMK A01 T01990006  RH  028%=      5-min Rain = 0
KFAS 191745Z 20017G22KT 20/01 A2993 RMK A01 T02040006  RH  027%=      5-min Rain = 0
KFAS 191750Z 19017KT 21/01 A2992 RMK A01 T02090006  RH  026%=      5-min Rain = 0
KFAS 191755Z 20016KT 21/01 A2992 RMK A01 T02100007  RH  026%=      5-min Rain = 0
KFAS 191800Z 20018G23KT 21/01 A2992 RMK A01 T02130005  RH  025%=      5-min Rain = 0
KFAS 191805Z 20017G22KT 21/01 A2991 RMK A01 T02130005  RH  025%=      5-min Rain = 0
KFAS 191810Z 20018G23KT 22/M00 A2991 RMK A01 T02201002  RH  023%=      5-min Rain = 0
KFAS 191815Z 20019G26KT 22/M01 A2991 RMK A01 T02211005  RH  022%=      5-min Rain = 0
KFAS 191820Z 21018G23KT 22/M01 A299 RMK A01 T02201006  RH  022%=      5-min Rain = 0
KFAS 191825Z 20020G26KT 22/M01 A299 RMK A01 T02191010  RH  022%=      5-min Rain = 0
KFAS 191830Z 21018G23KT 21/M01 A299 RMK A01 T02131008  RH  023%=      5-min Rain = 0
KFAS 191835Z 21018G23KT 22/M01 A299 RMK A01 T02181005  RH  023%=      5-min Rain = 0
KFAS 191840Z 20019G25KT 23/M01 A2989 RMK A01 T02261006  RH  021%=      5-min Rain = 0
KFAS 191845Z 21019G24KT 23/M01 A2989 RMK A01 T02301007  RH  021%=      5-min Rain = 0
KFAS 191850Z 20020G25KT 23/M01 A2988 RMK A01 T02321009  RH  020%=      5-min Rain = 0
KFAS 191855Z 20019G24KT 23/M01 A2988 RMK A01 T02311009  RH  020%=      5-min Rain = 0
KFAS 191900Z 20017G24KT 24/M01 A2988 RMK A01 T02371007  RH  020%=      5-min Rain = 0
KFAS 191905Z 20018G25KT 24/M01 A2987 RMK A01 T02371010  RH  020%=      5-min Rain = 0
KFAS 191910Z 20020KT 24/M01 A2987 RMK A01 T02371010  RH  019%=      5-min Rain = 0
KFAS 191915Z 20019G25KT 24/M01 A2987 RMK A01 T02381011  RH  019%=      5-min Rain = 0
KFAS 191920Z 20018G25KT 24/M01 A2987 RMK A01 T02401012  RH  019%=      5-min Rain = 0
KFAS 191925Z 20018G24KT 24/M02 A2986 RMK A01 T02401015  RH  019%=      5-min Rain = 0
KFAS 191930Z 19019KT 24/M02 A2986 RMK A01 T02391015  RH  019%=      5-min Rain = 0
KFAS 191935Z 20018KT 24/M02 A2986 RMK A01 T02411016  RH  018%=      5-min Rain = 0
KFAS 191940Z 20018G24KT 24/M02 A2985 RMK A01 T02411016  RH  018%=      5-min Rain = 0
KFAS 191945Z 20018G25KT 24/M02 A2985 RMK A01 T02431017  RH  018%=      5-min Rain = 0
KFAS 191950Z 20018G23KT 25/M01 A2985 RMK A01 T02451014  RH  018%=      5-min Rain = 0
KFAS 191955Z 20019G24KT 24/M02 A2984 RMK A01 T02441018  RH  018%=      5-min Rain = 0
KFAS 192000Z 21017KT 24/M02 A2984 RMK A01 T02441021  RH  017%=      5-min Rain = 0
KFAS 192005Z 20019G25KT 24/M02 A2984 RMK A01 T02431017  RH  018%=      5-min Rain = 0
KFAS 192010Z 20020G26KT 24/M02 A2984 RMK A01 T02421015  RH  018%=      5-min Rain = 0
KFAS 192015Z 20018G23KT 24/M02 A2984 RMK A01 T02421015  RH  018%=      5-min Rain = 0
KFAS 192020Z 20017KT 24/M02 A2984 RMK A01 T02411017  RH  018%=      5-min Rain = 0
KFAS 192025Z 20016G21KT 24/M02 A2983 RMK A01 T02421017  RH  018%=      5-min Rain = 0
KFAS 192030Z 20017G23KT 25/M02 A2983 RMK A01 T02451022  RH  017%=      5-min Rain = 0
KFAS 192035Z 20017G22KT 24/M02 A2983 RMK A01 T02421022  RH  017%=      5-min Rain = 0
KFAS 192040Z 20018G23KT 24/M02 A2983 RMK A01 T02411019  RH  018%=      5-min Rain = 0
KFAS 192045Z 20017KT 24/M02 A2983 RMK A01 T02411017  RH  018%=      5-min Rain = 0
KFAS 192050Z 20016G21KT 24/M02 A2982 RMK A01 T02371017  RH  019%=      5-min Rain = 0
KFAS 192055Z 21015G20KT 24/M01 A2982 RMK A01 T02421013  RH  019%=      5-min Rain = 0
KFAS 192100Z 21015KT 24/M02 A2982 RMK A01 T02431023  RH  017%=      5-min Rain = 0
KFAS 192105Z 21019G25KT 25/M03 A2981 RMK A01 T02461031  RH  016%=      5-min Rain = 0
KFAS 192110Z 21015G21KT 25/M03 A2981 RMK A01 T02471029  RH  016%=      5-min Rain = 0
KFAS 192115Z 22017KT 25/M03 A2981 RMK A01 T02471033  RH  016%=      5-min Rain = 0
KFAS 192120Z 21013G20KT 25/M03 A2981 RMK A01 T02501025  RH  016%=      5-min Rain = 0
KFAS 192125Z 21016G23KT 25/M03 A2981 RMK A01 T02501030  RH  016%=      5-min Rain = 0
KFAS 192130Z 21017G22KT 25/M03 A2981 RMK A01 T02461034  RH  016%=      5-min Rain = 0
KFAS 192135Z 21016KT 25/M03 A2981 RMK A01 T02451030  RH  016%=      5-min Rain = 0
KFAS 192140Z 22016KT 25/M03 A2981 RMK A01 T02451031  RH  016%=      5-min Rain = 0
KFAS 192145Z 22016KT 24/M03 A2981 RMK A01 T02431031  RH  016%=      5-min Rain = 0
KFAS 192150Z 22014G20KT 24/M03 A2981 RMK A01 T02421029  RH  016%=      5-min Rain = 0
KFAS 192155Z 22014KT 24/M03 A2981 RMK A01 T02431028  RH  016%=      5-min Rain = 0
KFAS 192200Z 22016G21KT 24/M03 A2981 RMK A01 T02431031  RH  016%=      5-min Rain = 0
KFAS 192205Z 22016KT 24/M04 A298 RMK A01 T02431037  RH  015%=      5-min Rain = 0
KFAS 192210Z 22016G21KT 24/M04 A298 RMK A01 T02421038  RH  015%=      5-min Rain = 0
KFAS 192215Z 22016KT 24/M04 A298 RMK A01 T02401035  RH  016%=      5-min Rain = 0
KFAS 192220Z 21015KT 24/M03 A298 RMK A01 T02381033  RH  016%=      5-min Rain = 0
KFAS 192225Z 22013KT 24/M03 A298 RMK A01 T02361031  RH  017%=      5-min Rain = 0
KFAS 192230Z 21014KT 23/M03 A298 RMK A01 T02341032  RH  017%=      5-min Rain = 0
KFAS 192235Z 21012KT 23/M03 A298 RMK A01 T02301027  RH  018%=      5-min Rain = 0
KFAS 192240Z 21011KT 23/M02 A298 RMK A01 T02271024  RH  019%=      5-min Rain = 0
KFAS 192245Z 20010KT 23/M02 A298 RMK A01 T02261020  RH  019%=      5-min Rain = 0
KFAS 192250Z 21009KT 22/M02 A298 RMK A01 T02231017  RH  020%=      5-min Rain = 0
KFAS 192255Z 20009KT 22/M02 A298 RMK A01 T02181016  RH  021%=      5-min Rain = 0
KFAS 192300Z 20008KT 21/M01 A298 RMK A01 T02131013  RH  022%=      5-min Rain = 0
KFAS 192305Z 20008KT 21/M01 A298 RMK A01 T02061011  RH  023%=      5-min Rain = 0
KFAS 192310Z 19007KT 19/M01 A298 RMK A01 T01931009  RH  026%=      5-min Rain = 0
KFAS 192315Z 19008KT 18/M00 A298 RMK A01 T01841003  RH  029%=      5-min Rain = 0
KFAS 192320Z 19008KT 18/M00 A2981 RMK A01 T01761003  RH  030%=      5-min Rain = 0
KFAS 192325Z 19008KT 17/M00 A298 RMK A01 T01681004  RH  031%=      5-min Rain = 0
KFAS 192330Z 19010KT 16/M01 A298 RMK A01 T01641007  RH  032%=      5-min Rain = 0
KFAS 192335Z 21011KT 16/M01 A298 RMK A01 T01631011  RH  031%=      5-min Rain = 0
KFAS 192340Z 21012KT 17/M01 A298 RMK A01 T01701014  RH  029%=      5-min Rain = 0
KFAS 192345Z 21012KT 17/M02 A298 RMK A01 T01741017  RH  027%=      5-min Rain = 0
KFAS 192350Z 21012KT 17/M02 A2981 RMK A01 T01721019  RH  027%=      5-min Rain = 0
KFAS 192355Z 20011KT 16/M02 A2981 RMK A01 T01641020  RH  029%=      5-min Rain = 0
KFAS 200000Z 20009KT 16/M02 A2981 RMK A01 T01561020  RH  030%=      5-min Rain = 0
KFAS 200005Z 20009KT 14/M02 A2981 RMK A01 T01441020  RH  033%=      5-min Rain = 0
KFAS 200010Z 20009KT 13/M02 A2982 RMK A01 T01341018  RH  035%=      5-min Rain = 0
KFAS 200015Z 19008KT 13/M02 A2982 RMK A01 T01311019  RH  036%=      5-min Rain = 0
KFAS 200020Z 20008KT 13/M02 A2981 RMK A01 T01341019  RH  035%=      5-min Rain = 0
KFAS 200025Z 20008KT 13/M02 A2981 RMK A01 T01311019  RH  036%=      5-min Rain = 0
KFAS 200030Z 19009KT 12/M02 A2981 RMK A01 T01221018  RH  038%=      5-min Rain = 0
KFAS 200035Z 19008KT 12/M02 A2981 RMK A01 T01211017  RH  039%=      5-min Rain = 0
KFAS 200040Z 19008KT 12/M02 A2981 RMK A01 T01201016  RH  039%=      5-min Rain = 0
KFAS 200045Z 19007KT 12/M02 A2981 RMK A01 T01191016  RH  040%=      5-min Rain = 0
KFAS 200050Z 19006KT 12/M02 A2981 RMK A01 T01171015  RH  040%=      5-min Rain = 0
KFAS 200055Z 20008KT 11/M02 A2981 RMK A01 T01141015  RH  041%=      5-min Rain = 0
KFAS 200100Z 19008KT 12/M02 A2981 RMK A01 T01171015  RH  040%=      5-min Rain = 0
KFAS 200105Z 19009KT 12/M01 A2981 RMK A01 T01231013  RH  039%=      5-min Rain = 0
KFAS 200110Z 19008KT 13/M01 A2981 RMK A01 T01291013  RH  038%=      5-min Rain = 0
KFAS 200115Z 19008KT 12/M01 A2981 RMK A01 T01231011  RH  040%=      5-min Rain = 0
KFAS 200120Z 19009KT 12/M01 A2981 RMK A01 T01211010  RH  041%=      5-min Rain = 0
KFAS 200125Z 20008KT 12/M01 A2981 RMK A01 T01151010  RH  042%=      5-min Rain = 0
KFAS 200130Z 20009KT 11/M01 A2981 RMK A01 T01111009  RH  044%=      5-min Rain = 0
KFAS 200135Z 20010KT 11/M01 A2981 RMK A01 T01131009  RH  043%=      5-min Rain = 0
KFAS 200140Z 20010KT 12/M01 A2981 RMK A01 T01151010  RH  042%=      5-min Rain = 0
KFAS 200145Z 20009KT 12/M01 A2981 RMK A01 T01171011  RH  042%=      5-min Rain = 0
KFAS 200150Z 20009KT 12/M01 A2981 RMK A01 T01171011  RH  042%=      5-min Rain = 0
KFAS 200155Z 20010KT 11/M01 A2981 RMK A01 T01141010  RH  043%=      5-min Rain = 0
KFAS 200200Z 20009KT 11/M01 A2982 RMK A01 T01141010  RH  043%=      5-min Rain = 0
KFAS 200205Z 19008KT 11/M01 A2982 RMK A01 T01091010  RH  044%=      5-min Rain = 0
KFAS 200210Z 19008KT 11/M01 A2982 RMK A01 T01081010  RH  044%=      5-min Rain = 0
KFAS 200215Z 18006KT 11/M01 A2982 RMK A01 T01051010  RH  045%=      5-min Rain = 0
KFAS 200220Z 20007KT 10/M01 A2982 RMK A01 T01021009  RH  046%=      5-min Rain = 0
KFAS 200225Z 19009KT 10/M01 A2982 RMK A01 T01021010  RH  046%=      5-min Rain = 0
KFAS 200230Z 19009KT 11/M01 A2982 RMK A01 T01071011  RH  044%=      5-min Rain = 0
KFAS 200235Z 19009KT 11/M01 A2982 RMK A01 T01061011  RH  045%=      5-min Rain = 0
KFAS 200240Z 21009KT 10/M01 A2982 RMK A01 T01041010  RH  045%=      5-min Rain = 0
KFAS 200245Z 20011KT 10/M01 A2982 RMK A01 T01031012  RH  045%=      5-min Rain = 0
KFAS 200250Z 20010KT 11/M01 A2982 RMK A01 T01071013  RH  044%=      5-min Rain = 0
KFAS 200255Z 20009KT 10/M01 A2982 RMK A01 T01031014  RH  044%=      5-min Rain = 0
KFAS 200300Z 20009KT 10/M01 A2982 RMK A01 T00991014  RH  046%=      5-min Rain = 0
KFAS 200305Z 19010KT 10/M01 A2982 RMK A01 T01001013  RH  046%=      5-min Rain = 0
KFAS 200310Z 20009KT 10/M01 A2982 RMK A01 T00991012  RH  046%=      5-min Rain = 0
KFAS 200315Z 20010KT 10/M01 A2982 RMK A01 T00991013  RH  046%=      5-min Rain = 0
KFAS 200320Z 20009KT 10/M01 A2982 RMK A01 T00971013  RH  047%=      5-min Rain = 0
KFAS 200325Z 20009KT 09/M01 A2983 RMK A01 T00941014  RH  047%=      5-min Rain = 0
KFAS 200330Z 19009KT 09/M01 A2983 RMK A01 T00921013  RH  048%=      5-min Rain = 0
KFAS 200335Z 20009KT 09/M01 A2983 RMK A01 T00911013  RH  048%=      5-min Rain = 0
KFAS 200340Z 20009KT 09/M01 A2983 RMK A01 T00891013  RH  049%=      5-min Rain = 0
KFAS 200345Z 19009KT 09/M01 A2983 RMK A01 T00861013  RH  050%=      5-min Rain = 0
KFAS 200350Z 20010KT 09/M01 A2983 RMK A01 T00851013  RH  050%=      5-min Rain = 0
KFAS 200355Z 21009KT 09/M01 A2983 RMK A01 T00861014  RH  050%=      5-min Rain = 0
KFAS 200400Z 21008KT 09/M01 A2983 RMK A01 T00861014  RH  050%=      5-min Rain = 0
KFAS 200405Z 20009KT 09/M01 A2983 RMK A01 T00861014  RH  050%=      5-min Rain = 0
KFAS 200410Z 20008KT 09/M01 A2983 RMK A01 T00861014  RH  050%=      5-min Rain = 0
KFAS 200415Z 20009KT 08/M01 A2983 RMK A01 T00821014  RH  051%=      5-min Rain = 0
KFAS 200420Z 20009KT 08/M01 A2983 RMK A01 T00801013  RH  052%=      5-min Rain = 0
KFAS 200425Z 20010KT 08/M01 A2983 RMK A01 T00801012  RH  053%=      5-min Rain = 0
KFAS 200430Z 21009KT 08/M01 A2983 RMK A01 T00811012  RH  052%=      5-min Rain = 0
KFAS 200435Z 21009KT 09/M01 A2982 RMK A01 T00871010  RH  051%=      5-min Rain = 0
KFAS 200440Z 21008KT 09/M01 A2983 RMK A01 T00931010  RH  049%=      5-min Rain = 0
KFAS 200445Z 21009KT 09/M01 A2982 RMK A01 T00921010  RH  049%=      5-min Rain = 0
KFAS 200450Z 20009KT 09/M01 A2982 RMK A01 T00911010  RH  050%=      5-min Rain = 0
KFAS 200455Z 21010KT 09/M01 A2982 RMK A01 T00911010  RH  050%=      5-min Rain = 0
KFAS 200500Z 21009KT 09/M01 A2982 RMK A01 T00891011  RH  050%=      5-min Rain = 0
KFAS 200505Z 21008KT 09/M01 A2982 RMK A01 T00851011  RH  051%=      5-min Rain = 0
KFAS 200510Z 21007KT 08/M01 A2982 RMK A01 T00821011  RH  052%=      5-min Rain = 0
KFAS 200515Z 21008KT 08/M01 A2982 RMK A01 T00831011  RH  052%=      5-min Rain = 0
KFAS 200520Z 21008KT 09/M01 A2982 RMK A01 T00851010  RH  052%=      5-min Rain = 0
KFAS 200525Z 22007KT 09/M01 A2982 RMK A01 T00881009  RH  051%=      5-min Rain = 0
KFAS 200530Z 21008KT 10/M01 A2982 RMK A01 T00951008  RH  049%=      5-min Rain = 0
KFAS 200535Z 21008KT 10/M01 A2982 RMK A01 T01021009  RH  046%=      5-min Rain = 0
KFAS 200540Z 21009KT 10/M01 A2982 RMK A01 T01041010  RH  046%=      5-min Rain = 0
KFAS 200545Z 20009KT 10/M01 A2982 RMK A01 T01001009  RH  047%=      5-min Rain = 0
KFAS 200550Z 20009KT 10/M01 A2982 RMK A01 T00951008  RH  049%=      5-min Rain = 0
KFAS 200555Z 20009KT 09/M01 A2981 RMK A01 T00931007  RH  050%=      5-min Rain = 0

Page generated in 0.0122 seconds.